sensor_id;sensor_type;location;lat;lon;timestamp;pressure;altitude;pressure_sealevel;temperature;humidity
75359;BME280;64046;51.978;5.934;2023-05-24T00:02:11;102351.16;;;15.00;59.78
75359;BME280;64046;51.978;5.934;2023-05-24T00:04:44;102342.97;;;15.08;59.88
75359;BME280;64046;51.978;5.934;2023-05-24T00:07:17;102332.22;;;14.88;60.33
75359;BME280;64046;51.978;5.934;2023-05-24T00:09:47;102330.59;;;14.86;60.83
75359;BME280;64046;51.978;5.934;2023-05-24T00:12:26;102331.91;;;14.98;60.83
75359;BME280;64046;51.978;5.934;2023-05-24T00:14:56;102326.06;;;14.66;62.01
75359;BME280;64046;51.978;5.934;2023-05-24T00:17:31;102336.72;;;14.63;61.92
75359;BME280;64046;51.978;5.934;2023-05-24T00:20:08;102330.97;;;14.75;61.72
75359;BME280;64046;51.978;5.934;2023-05-24T00:22:41;102335.09;;;14.59;62.18
75359;BME280;64046;51.978;5.934;2023-05-24T00:25:12;102328.22;;;14.54;62.80
75359;BME280;64046;51.978;5.934;2023-05-24T00:27:44;102320.63;;;14.70;62.72
75359;BME280;64046;51.978;5.934;2023-05-24T00:30:16;102320.84;;;14.64;62.98
75359;BME280;64046;51.978;5.934;2023-05-24T00:32:47;102315.34;;;14.45;63.33
75359;BME280;64046;51.978;5.934;2023-05-24T00:35:22;102316.63;;;14.59;63.36
75359;BME280;64046;51.978;5.934;2023-05-24T00:37:53;102312.03;;;14.40;63.82
75359;BME280;64046;51.978;5.934;2023-05-24T00:40:27;102301.66;;;14.59;63.42
75359;BME280;64046;51.978;5.934;2023-05-24T00:43:02;102304.53;;;14.53;63.89
75359;BME280;64046;51.978;5.934;2023-05-24T00:45:32;102310.31;;;14.39;64.03
75359;BME280;64046;51.978;5.934;2023-05-24T00:48:06;102317.53;;;14.58;64.01
75359;BME280;64046;51.978;5.934;2023-05-24T00:50:38;102311.69;;;14.49;63.98
75359;BME280;64046;51.978;5.934;2023-05-24T00:53:08;102302.16;;;14.45;64.27
75359;BME280;64046;51.978;5.934;2023-05-24T00:55:41;102301.53;;;14.39;64.49
75359;BME280;64046;51.978;5.934;2023-05-24T00:58:15;102294.66;;;14.58;64.18
75359;BME280;64046;51.978;5.934;2023-05-24T01:00:46;102291.47;;;14.50;64.32
75359;BME280;64046;51.978;5.934;2023-05-24T01:03:17;102300.59;;;14.40;64.56
75359;BME280;64046;51.978;5.934;2023-05-24T01:05:48;102296.41;;;14.34;64.52
75359;BME280;64046;51.978;5.934;2023-05-24T01:08:26;102289.19;;;14.39;64.88
75359;BME280;64046;51.978;5.934;2023-05-24T01:11:05;102297.41;;;14.31;65.19
75359;BME280;64046;51.978;5.934;2023-05-24T01:13:45;102292.28;;;14.27;65.35
75359;BME280;64046;51.978;5.934;2023-05-24T01:16:22;102300.19;;;14.27;65.54
75359;BME280;64046;51.978;5.934;2023-05-24T01:19:04;102296.00;;;14.21;65.88
75359;BME280;64046;51.978;5.934;2023-05-24T01:21:52;102293.22;;;14.26;65.88
75359;BME280;64046;51.978;5.934;2023-05-24T01:24:43;102295.03;;;14.24;65.89
75359;BME280;64046;51.978;5.934;2023-05-24T01:27:21;102304.66;;;14.25;66.35
75359;BME280;64046;51.978;5.934;2023-05-24T01:29:55;102301.91;;;14.28;66.63
75359;BME280;64046;51.978;5.934;2023-05-24T01:32:34;102299.22;;;14.29;66.61
75359;BME280;64046;51.978;5.934;2023-05-24T01:37:58;102297.22;;;14.36;66.55
75359;BME280;64046;51.978;5.934;2023-05-24T01:40:28;102304.25;;;14.12;67.76
75359;BME280;64046;51.978;5.934;2023-05-24T01:43:07;102300.34;;;14.22;67.79
75359;BME280;64046;51.978;5.934;2023-05-24T01:45:45;102298.13;;;14.11;68.38
75359;BME280;64046;51.978;5.934;2023-05-24T01:48:23;102300.09;;;14.05;68.59
75359;BME280;64046;51.978;5.934;2023-05-24T01:50:58;102307.56;;;13.92;69.40
75359;BME280;64046;51.978;5.934;2023-05-24T01:53:32;102309.44;;;13.88;69.78
75359;BME280;64046;51.978;5.934;2023-05-24T01:56:08;102301.59;;;13.87;69.87
75359;BME280;64046;51.978;5.934;2023-05-24T01:58:44;102306.84;;;13.87;69.53
75359;BME280;64046;51.978;5.934;2023-05-24T02:01:15;102302.88;;;13.75;70.11
75359;BME280;64046;51.978;5.934;2023-05-24T02:03:47;102306.75;;;13.64;70.21
75359;BME280;64046;51.978;5.934;2023-05-24T02:06:20;102303.31;;;13.61;70.26
75359;BME280;64046;51.978;5.934;2023-05-24T02:08:51;102302.38;;;13.63;70.24
75359;BME280;64046;51.978;5.934;2023-05-24T02:11:24;102300.75;;;13.59;70.42
75359;BME280;64046;51.978;5.934;2023-05-24T02:14:02;102302.09;;;13.73;70.09
75359;BME280;64046;51.978;5.934;2023-05-24T02:19:16;102297.97;;;13.64;70.47
75359;BME280;64046;51.978;5.934;2023-05-24T02:21:49;102303.78;;;13.74;70.26
75359;BME280;64046;51.978;5.934;2023-05-24T02:24:19;102302.22;;;13.68;70.20
75359;BME280;64046;51.978;5.934;2023-05-24T02:26:52;102297.66;;;13.73;70.22
75359;BME280;64046;51.978;5.934;2023-05-24T02:29:33;102302.25;;;13.93;69.64
75359;BME280;64046;51.978;5.934;2023-05-24T02:32:07;102301.03;;;13.77;69.89
75359;BME280;64046;51.978;5.934;2023-05-24T02:34:43;102298.38;;;13.78;70.04
75359;BME280;64046;51.978;5.934;2023-05-24T02:37:18;102303.59;;;13.80;69.96
75359;BME280;64046;51.978;5.934;2023-05-24T02:39:48;102293.78;;;13.83;69.98
75359;BME280;64046;51.978;5.934;2023-05-24T02:42:20;102297.31;;;13.84;70.25
75359;BME280;64046;51.978;5.934;2023-05-24T02:44:53;102295.09;;;13.97;69.99
75359;BME280;64046;51.978;5.934;2023-05-24T02:47:28;102303.25;;;13.89;70.37
75359;BME280;64046;51.978;5.934;2023-05-24T02:50:13;102294.06;;;14.01;69.88
75359;BME280;64046;51.978;5.934;2023-05-24T02:52:43;102298.38;;;13.78;70.63
75359;BME280;64046;51.978;5.934;2023-05-24T02:55:13;102301.69;;;13.83;70.72
75359;BME280;64046;51.978;5.934;2023-05-24T02:57:46;102297.94;;;13.91;70.65
75359;BME280;64046;51.978;5.934;2023-05-24T03:00:19;102307.69;;;13.89;70.81
75359;BME280;64046;51.978;5.934;2023-05-24T03:02:55;102299.97;;;13.82;71.06
75359;BME280;64046;51.978;5.934;2023-05-24T03:05:28;102292.75;;;13.62;71.51
75359;BME280;64046;51.978;5.934;2023-05-24T03:08:00;102295.94;;;13.72;71.61
75359;BME280;64046;51.978;5.934;2023-05-24T03:10:30;102290.47;;;13.52;72.23
75359;BME280;64046;51.978;5.934;2023-05-24T03:12:59;102284.38;;;13.49;72.56
75359;BME280;64046;51.978;5.934;2023-05-24T03:15:34;102283.94;;;13.63;72.35
75359;BME280;64046;51.978;5.934;2023-05-24T03:18:04;102285.22;;;13.52;72.64
75359;BME280;64046;51.978;5.934;2023-05-24T03:20:48;102289.63;;;13.51;72.63
75359;BME280;64046;51.978;5.934;2023-05-24T03:23:20;102277.59;;;13.69;72.45
75359;BME280;64046;51.978;5.934;2023-05-24T03:25:50;102275.38;;;13.57;72.63
75359;BME280;64046;51.978;5.934;2023-05-24T03:28:21;102268.19;;;13.62;73.17
75359;BME280;64046;51.978;5.934;2023-05-24T03:30:55;102268.63;;;13.75;73.10
75359;BME280;64046;51.978;5.934;2023-05-24T03:33:27;102271.66;;;13.62;73.43
75359;BME280;64046;51.978;5.934;2023-05-24T03:35:59;102280.44;;;13.63;73.37
75359;BME280;64046;51.978;5.934;2023-05-24T03:38:31;102279.50;;;13.64;73.40
75359;BME280;64046;51.978;5.934;2023-05-24T03:41:06;102273.78;;;13.78;73.25
75359;BME280;64046;51.978;5.934;2023-05-24T03:43:41;102276.63;;;13.72;73.59
75359;BME280;64046;51.978;5.934;2023-05-24T03:46:19;102277.25;;;13.80;73.37
75359;BME280;64046;51.978;5.934;2023-05-24T03:48:49;102283.03;;;13.64;73.68
75359;BME280;64046;51.978;5.934;2023-05-24T03:51:24;102283.31;;;13.82;73.76
75359;BME280;64046;51.978;5.934;2023-05-24T03:53:57;102283.16;;;13.87;73.45
75359;BME280;64046;51.978;5.934;2023-05-24T03:56:27;102278.31;;;13.74;73.54
75359;BME280;64046;51.978;5.934;2023-05-24T03:58:58;102273.72;;;13.79;73.51
75359;BME280;64046;51.978;5.934;2023-05-24T04:01:35;102277.47;;;13.99;73.20
75359;BME280;64046;51.978;5.934;2023-05-24T04:04:04;102267.50;;;13.82;73.80
75359;BME280;64046;51.978;5.934;2023-05-24T04:06:33;102269.19;;;13.84;74.00
75359;BME280;64046;51.978;5.934;2023-05-24T04:09:03;102283.09;;;13.88;74.11
75359;BME280;64046;51.978;5.934;2023-05-24T04:11:37;102276.97;;;13.88;74.28
75359;BME280;64046;51.978;5.934;2023-05-24T04:14:11;102275.13;;;13.90;74.64
75359;BME280;64046;51.978;5.934;2023-05-24T04:16:43;102273.81;;;14.03;74.35
75359;BME280;64046;51.978;5.934;2023-05-24T04:19:32;102272.59;;;14.12;74.03
75359;BME280;64046;51.978;5.934;2023-05-24T04:22:04;102272.19;;;13.99;75.35
75359;BME280;64046;51.978;5.934;2023-05-24T04:24:36;102272.59;;;13.87;75.87
75359;BME280;64046;51.978;5.934;2023-05-24T04:27:09;102275.09;;;13.91;75.97
75359;BME280;64046;51.978;5.934;2023-05-24T04:29:40;102276.56;;;14.00;76.52
75359;BME280;64046;51.978;5.934;2023-05-24T04:32:16;102280.75;;;14.06;76.69
75359;BME280;64046;51.978;5.934;2023-05-24T04:34:50;102282.00;;;13.94;77.46
75359;BME280;64046;51.978;5.934;2023-05-24T04:37:21;102289.13;;;13.92;77.80
75359;BME280;64046;51.978;5.934;2023-05-24T04:39:51;102284.81;;;13.89;78.41
75359;BME280;64046;51.978;5.934;2023-05-24T04:42:24;102291.38;;;14.02;78.70
75359;BME280;64046;51.978;5.934;2023-05-24T04:44:57;102291.72;;;13.93;79.13
75359;BME280;64046;51.978;5.934;2023-05-24T04:47:36;102288.38;;;14.13;78.86
75359;BME280;64046;51.978;5.934;2023-05-24T04:50:17;102286.38;;;14.20;78.90
75359;BME280;64046;51.978;5.934;2023-05-24T04:52:49;102288.84;;;13.99;79.88
75359;BME280;64046;51.978;5.934;2023-05-24T04:55:20;102292.72;;;14.14;79.87
75359;BME280;64046;51.978;5.934;2023-05-24T04:57:51;102293.03;;;14.05;80.07
75359;BME280;64046;51.978;5.934;2023-05-24T05:00:24;102293.34;;;14.21;80.09
75359;BME280;64046;51.978;5.934;2023-05-24T05:02:56;102293.94;;;14.29;80.09
75359;BME280;64046;51.978;5.934;2023-05-24T05:05:27;102291.00;;;14.13;80.60
75359;BME280;64046;51.978;5.934;2023-05-24T05:07:59;102302.75;;;14.28;80.75
75359;BME280;64046;51.978;5.934;2023-05-24T05:10:32;102286.63;;;14.38;80.56
75359;BME280;64046;51.978;5.934;2023-05-24T05:13:01;102294.00;;;14.28;80.77
75359;BME280;64046;51.978;5.934;2023-05-24T05:15:38;102282.97;;;14.42;80.29
75359;BME280;64046;51.978;5.934;2023-05-24T05:18:14;102289.16;;;14.41;81.05
75359;BME280;64046;51.978;5.934;2023-05-24T05:20:44;102290.34;;;14.32;81.26
75359;BME280;64046;51.978;5.934;2023-05-24T05:23:14;102296.63;;;14.28;81.47
75359;BME280;64046;51.978;5.934;2023-05-24T05:25:47;102295.72;;;14.29;81.52
75359;BME280;64046;51.978;5.934;2023-05-24T05:28:21;102293.22;;;14.49;81.30
75359;BME280;64046;51.978;5.934;2023-05-24T05:30:51;102295.19;;;14.44;81.43
75359;BME280;64046;51.978;5.934;2023-05-24T05:33:30;102296.16;;;14.65;80.87
75359;BME280;64046;51.978;5.934;2023-05-24T05:35:59;102294.09;;;14.50;81.71
75359;BME280;64046;51.978;5.934;2023-05-24T05:38:33;102299.25;;;14.77;80.99
75359;BME280;64046;51.978;5.934;2023-05-24T05:41:03;102298.16;;;14.82;80.70
75359;BME280;64046;51.978;5.934;2023-05-24T05:43:37;102300.34;;;14.95;80.15
75359;BME280;64046;51.978;5.934;2023-05-24T05:46:12;102298.28;;;14.79;80.67
75359;BME280;64046;51.978;5.934;2023-05-24T05:48:47;102310.53;;;15.04;80.17
75359;BME280;64046;51.978;5.934;2023-05-24T05:51:23;102308.44;;;14.90;80.56
75359;BME280;64046;51.978;5.934;2023-05-24T05:53:53;102307.31;;;14.96;80.60
75359;BME280;64046;51.978;5.934;2023-05-24T05:56:23;102305.38;;;15.01;80.50
75359;BME280;64046;51.978;5.934;2023-05-24T05:59:00;102296.41;;;15.05;80.13
75359;BME280;64046;51.978;5.934;2023-05-24T06:01:29;102297.19;;;15.07;80.20
75359;BME280;64046;51.978;5.934;2023-05-24T06:04:08;102309.59;;;15.27;79.88
75359;BME280;64046;51.978;5.934;2023-05-24T06:06:39;102309.16;;;15.17;80.21
75359;BME280;64046;51.978;5.934;2023-05-24T06:09:17;102312.38;;;15.24;79.75
75359;BME280;64046;51.978;5.934;2023-05-24T06:11:53;102315.63;;;15.53;78.87
75359;BME280;64046;51.978;5.934;2023-05-24T06:14:24;102314.47;;;15.38;79.26
75359;BME280;64046;51.978;5.934;2023-05-24T06:16:57;102315.16;;;15.43;79.44
75359;BME280;64046;51.978;5.934;2023-05-24T06:19:30;102314.06;;;15.69;78.64
75359;BME280;64046;51.978;5.934;2023-05-24T06:22:04;102333.28;;;15.73;78.00
75359;BME280;64046;51.978;5.934;2023-05-24T06:24:35;102340.16;;;15.56;78.29
75359;BME280;64046;51.978;5.934;2023-05-24T06:27:11;102334.41;;;15.67;77.96
75359;BME280;64046;51.978;5.934;2023-05-24T06:29:46;102339.00;;;15.84;77.41
75359;BME280;64046;51.978;5.934;2023-05-24T06:32:16;102339.97;;;15.83;76.66
75359;BME280;64046;51.978;5.934;2023-05-24T06:34:49;102340.81;;;16.04;75.77
75359;BME280;64046;51.978;5.934;2023-05-24T06:37:21;102345.38;;;16.01;75.74
75359;BME280;64046;51.978;5.934;2023-05-24T06:39:51;102345.31;;;16.02;74.93
75359;BME280;64046;51.978;5.934;2023-05-24T06:42:23;102350.13;;;16.13;74.42
75359;BME280;64046;51.978;5.934;2023-05-24T06:44:52;102343.66;;;16.20;73.83
75359;BME280;64046;51.978;5.934;2023-05-24T06:47:32;102338.53;;;16.57;72.61
75359;BME280;64046;51.978;5.934;2023-05-24T06:50:08;102341.53;;;16.68;72.62
75359;BME280;64046;51.978;5.934;2023-05-24T06:52:46;102336.03;;;16.73;71.63
75359;BME280;64046;51.978;5.934;2023-05-24T06:55:15;102342.59;;;16.64;71.62
75359;BME280;64046;51.978;5.934;2023-05-24T06:57:46;102338.53;;;16.76;71.00
75359;BME280;64046;51.978;5.934;2023-05-24T07:00:19;102332.59;;;16.71;71.05
75359;BME280;64046;51.978;5.934;2023-05-24T07:02:49;102340.09;;;16.61;71.21
75359;BME280;64046;51.978;5.934;2023-05-24T07:05:22;102338.81;;;16.70;71.07
75359;BME280;64046;51.978;5.934;2023-05-24T07:07:51;102338.81;;;16.51;71.64
75359;BME280;64046;51.978;5.934;2023-05-24T07:10:21;102340.25;;;16.58;71.61
75359;BME280;64046;51.978;5.934;2023-05-24T07:12:51;102348.34;;;16.74;71.21
75359;BME280;64046;51.978;5.934;2023-05-24T07:15:22;102349.13;;;16.76;71.23
75359;BME280;64046;51.978;5.934;2023-05-24T07:17:57;102349.94;;;16.78;71.45
75359;BME280;64046;51.978;5.934;2023-05-24T07:20:30;102356.72;;;16.84;70.94
75359;BME280;64046;51.978;5.934;2023-05-24T07:23:00;102350.41;;;16.67;71.47
75359;BME280;64046;51.978;5.934;2023-05-24T07:25:33;102350.19;;;16.72;71.25
75359;BME280;64046;51.978;5.934;2023-05-24T07:28:02;102355.16;;;16.80;71.17
75359;BME280;64046;51.978;5.934;2023-05-24T07:30:32;102353.19;;;16.83;70.88
75359;BME280;64046;51.978;5.934;2023-05-24T07:33:04;102341.63;;;16.86;70.82
75359;BME280;64046;51.978;5.934;2023-05-24T07:35:36;102346.44;;;17.16;70.33
75359;BME280;64046;51.978;5.934;2023-05-24T07:38:07;102348.66;;;17.06;69.90
75359;BME280;64046;51.978;5.934;2023-05-24T07:40:39;102341.22;;;17.14;69.23
75359;BME280;64046;51.978;5.934;2023-05-24T07:43:09;102347.94;;;17.21;69.11
75359;BME280;64046;51.978;5.934;2023-05-24T07:45:38;102340.56;;;17.28;68.41
75359;BME280;64046;51.978;5.934;2023-05-24T07:48:09;102340.94;;;17.38;68.40
75359;BME280;64046;51.978;5.934;2023-05-24T07:50:49;102333.13;;;17.71;66.85
75359;BME280;64046;51.978;5.934;2023-05-24T07:53:21;102331.56;;;17.67;66.73
75359;BME280;64046;51.978;5.934;2023-05-24T07:55:59;102331.66;;;17.83;65.93
75359;BME280;64046;51.978;5.934;2023-05-24T07:58:30;102335.75;;;17.90;65.14
75359;BME280;64046;51.978;5.934;2023-05-24T08:00:59;102331.97;;;18.12;65.18
75359;BME280;64046;51.978;5.934;2023-05-24T08:03:29;102336.94;;;18.36;62.53
75359;BME280;64046;51.978;5.934;2023-05-24T08:06:04;102331.25;;;18.75;59.77
75359;BME280;64046;51.978;5.934;2023-05-24T08:08:35;102323.22;;;18.77;59.42
75359;BME280;64046;51.978;5.934;2023-05-24T08:11:09;102331.25;;;18.93;58.09
75359;BME280;64046;51.978;5.934;2023-05-24T08:13:38;102322.94;;;18.99;58.04
75359;BME280;64046;51.978;5.934;2023-05-24T08:16:14;102333.38;;;19.02;57.83
75359;BME280;64046;51.978;5.934;2023-05-24T08:18:46;102328.06;;;19.18;56.05
75359;BME280;64046;51.978;5.934;2023-05-24T08:21:20;102325.63;;;19.45;54.06
75359;BME280;64046;51.978;5.934;2023-05-24T08:23:50;102331.75;;;19.31;54.41
75359;BME280;64046;51.978;5.934;2023-05-24T08:26:25;102318.00;;;19.39;53.59
75359;BME280;64046;51.978;5.934;2023-05-24T08:29:08;102336.25;;;19.76;52.45
75359;BME280;64046;51.978;5.934;2023-05-24T08:31:38;102330.72;;;19.64;52.77
75359;BME280;64046;51.978;5.934;2023-05-24T08:34:12;102325.66;;;19.60;51.98
75359;BME280;64046;51.978;5.934;2023-05-24T08:36:46;102328.19;;;19.47;51.95
75359;BME280;64046;51.978;5.934;2023-05-24T08:39:18;102324.63;;;19.16;52.38
75359;BME280;64046;51.978;5.934;2023-05-24T08:41:50;102325.41;;;19.02;52.81
75359;BME280;64046;51.978;5.934;2023-05-24T08:44:20;102324.97;;;18.94;52.65
75359;BME280;64046;51.978;5.934;2023-05-24T08:46:54;102331.47;;;18.88;52.80
75359;BME280;64046;51.978;5.934;2023-05-24T08:49:28;102325.56;;;18.83;52.36
75359;BME280;64046;51.978;5.934;2023-05-24T08:52:02;102333.13;;;18.91;51.82
75359;BME280;64046;51.978;5.934;2023-05-24T08:54:36;102325.56;;;18.83;52.23
75359;BME280;64046;51.978;5.934;2023-05-24T08:57:11;102323.09;;;18.96;51.77
75359;BME280;64046;51.978;5.934;2023-05-24T08:59:41;102323.59;;;18.87;51.98
75359;BME280;64046;51.978;5.934;2023-05-24T09:02:20;102327.22;;;19.01;51.88
75359;BME280;64046;51.978;5.934;2023-05-24T09:04:53;102330.38;;;19.08;51.54
75359;BME280;64046;51.978;5.934;2023-05-24T09:07:32;102325.13;;;19.07;50.55
75359;BME280;64046;51.978;5.934;2023-05-24T09:10:08;102330.53;;;19.05;50.39
75359;BME280;64046;51.978;5.934;2023-05-24T09:12:44;102325.59;;;18.99;50.18
75359;BME280;64046;51.978;5.934;2023-05-24T09:15:16;102322.41;;;18.92;50.14
75359;BME280;64046;51.978;5.934;2023-05-24T09:17:49;102330.72;;;19.02;49.67
75359;BME280;64046;51.978;5.934;2023-05-24T09:20:19;102325.59;;;18.99;49.53
75359;BME280;64046;51.978;5.934;2023-05-24T09:22:52;102336.66;;;19.07;49.31
75359;BME280;64046;51.978;5.934;2023-05-24T09:25:25;102323.00;;;18.97;49.31
75359;BME280;64046;51.978;5.934;2023-05-24T09:27:56;102328.25;;;18.99;49.29
75359;BME280;64046;51.978;5.934;2023-05-24T09:30:25;102330.97;;;19.13;49.21
75359;BME280;64046;51.978;5.934;2023-05-24T09:32:58;102330.97;;;19.29;48.35
75359;BME280;64046;51.978;5.934;2023-05-24T09:35:29;102335.19;;;19.17;48.24
75359;BME280;64046;51.978;5.934;2023-05-24T09:38:04;102337.06;;;19.31;48.24
75359;BME280;64046;51.978;5.934;2023-05-24T09:40:37;102336.28;;;19.29;47.97
75359;BME280;64046;51.978;5.934;2023-05-24T09:43:12;102333.44;;;19.32;47.91
75359;BME280;64046;51.978;5.934;2023-05-24T09:45:43;102335.44;;;19.29;47.77
75359;BME280;64046;51.978;5.934;2023-05-24T09:48:26;102339.78;;;19.30;47.98
75359;BME280;64046;51.978;5.934;2023-05-24T09:51:16;102334.13;;;19.36;47.77
75359;BME280;64046;51.978;5.934;2023-05-24T09:53:49;102328.53;;;19.41;47.96
75359;BME280;64046;51.978;5.934;2023-05-24T09:56:19;102338.09;;;19.29;47.76
75359;BME280;64046;51.978;5.934;2023-05-24T09:58:51;102332.94;;;19.42;47.60
75359;BME280;64046;51.978;5.934;2023-05-24T10:01:27;102326.81;;;19.40;47.38
75359;BME280;64046;51.978;5.934;2023-05-24T10:04:04;102327.44;;;19.29;47.71
75359;BME280;64046;51.978;5.934;2023-05-24T10:06:40;102332.59;;;19.32;47.39
75359;BME280;64046;51.978;5.934;2023-05-24T10:09:13;102328.91;;;19.34;47.25
75359;BME280;64046;51.978;5.934;2023-05-24T10:11:45;102323.34;;;19.23;47.85
75359;BME280;64046;51.978;5.934;2023-05-24T10:14:22;102329.38;;;19.41;47.39
75359;BME280;64046;51.978;5.934;2023-05-24T10:16:53;102333.19;;;19.21;47.58
75359;BME280;64046;51.978;5.934;2023-05-24T10:19:25;102327.84;;;19.37;46.91
75359;BME280;64046;51.978;5.934;2023-05-24T10:22:03;102336.69;;;19.38;46.92
75359;BME280;64046;51.978;5.934;2023-05-24T10:24:46;102336.78;;;19.36;46.59
75359;BME280;64046;51.978;5.934;2023-05-24T10:27:22;102340.47;;;19.33;46.64
75359;BME280;64046;51.978;5.934;2023-05-24T10:29:58;102345.19;;;19.28;46.81
75359;BME280;64046;51.978;5.934;2023-05-24T10:32:33;102341.34;;;19.18;46.90
75359;BME280;64046;51.978;5.934;2023-05-24T10:35:05;102338.00;;;19.14;46.77
75359;BME280;64046;51.978;5.934;2023-05-24T10:37:37;102334.22;;;19.02;47.22
75359;BME280;64046;51.978;5.934;2023-05-24T10:40:23;102338.75;;;19.32;46.80
75359;BME280;64046;51.978;5.934;2023-05-24T10:42:54;102344.00;;;19.18;47.23
75359;BME280;64046;51.978;5.934;2023-05-24T10:45:30;102332.03;;;19.41;46.90
75359;BME280;64046;51.978;5.934;2023-05-24T10:48:35;102331.47;;;19.66;46.41
75359;BME280;64046;51.978;5.934;2023-05-24T10:51:32;102329.06;;;19.78;45.84
75359;BME280;64046;51.978;5.934;2023-05-24T10:54:15;102326.16;;;19.82;45.95
75359;BME280;64046;51.978;5.934;2023-05-24T10:56:50;102323.47;;;19.82;45.62
75359;BME280;64046;51.978;5.934;2023-05-24T10:59:28;102314.84;;;19.79;45.27
75359;BME280;64046;51.978;5.934;2023-05-24T11:02:00;102315.53;;;19.66;45.19
75359;BME280;64046;51.978;5.934;2023-05-24T11:04:32;102300.38;;;19.83;45.18
75359;BME280;64046;51.978;5.934;2023-05-24T11:07:09;102304.03;;;19.96;44.60
75359;BME280;64046;51.978;5.934;2023-05-24T11:09:42;102315.34;;;19.69;45.07
75359;BME280;64046;51.978;5.934;2023-05-24T11:12:42;102311.94;;;19.67;44.91
75359;BME280;64046;51.978;5.934;2023-05-24T11:15:22;102303.56;;;19.74;44.68
75359;BME280;64046;51.978;5.934;2023-05-24T11:18:13;102306.13;;;19.91;44.32
75359;BME280;64046;51.978;5.934;2023-05-24T11:20:47;102306.22;;;19.90;45.00
75359;BME280;64046;51.978;5.934;2023-05-24T11:23:21;102307.66;;;19.95;44.97
75359;BME280;64046;51.978;5.934;2023-05-24T11:25:58;102307.84;;;19.92;45.14
75359;BME280;64046;51.978;5.934;2023-05-24T11:28:38;102299.47;;;20.13;45.07
75359;BME280;64046;51.978;5.934;2023-05-24T11:31:08;102311.16;;;19.96;45.13
75359;BME280;64046;51.978;5.934;2023-05-24T11:33:42;102304.91;;;20.11;45.19
75359;BME280;64046;51.978;5.934;2023-05-24T11:36:15;102298.06;;;20.07;45.13
75359;BME280;64046;51.978;5.934;2023-05-24T11:38:47;102302.44;;;20.08;45.07
75359;BME280;64046;51.978;5.934;2023-05-24T11:41:18;102302.44;;;20.08;45.07
75359;BME280;64046;51.978;5.934;2023-05-24T11:43:54;102304.91;;;20.26;44.62
75359;BME280;64046;51.978;5.934;2023-05-24T11:46:25;102305.50;;;20.16;44.53
75359;BME280;64046;51.978;5.934;2023-05-24T11:48:59;102304.25;;;20.36;44.66
75359;BME280;64046;51.978;5.934;2023-05-24T11:51:32;102307.31;;;20.45;44.13
75359;BME280;64046;51.978;5.934;2023-05-24T11:54:03;102298.34;;;20.46;44.27
75359;BME280;64046;51.978;5.934;2023-05-24T11:56:33;102288.91;;;20.54;44.15
75359;BME280;64046;51.978;5.934;2023-05-24T11:59:14;102298.59;;;20.84;43.72
75359;BME280;64046;51.978;5.934;2023-05-24T12:01:45;102299.69;;;20.67;44.29
75359;BME280;64046;51.978;5.934;2023-05-24T12:04:16;102294.81;;;20.74;44.15
75359;BME280;64046;51.978;5.934;2023-05-24T12:06:46;102293.56;;;20.80;43.49
75359;BME280;64046;51.978;5.934;2023-05-24T12:09:15;102286.31;;;20.82;43.77
75359;BME280;64046;51.978;5.934;2023-05-24T12:11:50;102292.50;;;20.97;43.76
75359;BME280;64046;51.978;5.934;2023-05-24T12:14:28;102289.41;;;21.03;43.49
75359;BME280;64046;51.978;5.934;2023-05-24T12:16:58;102285.94;;;20.88;43.67
75359;BME280;64046;51.978;5.934;2023-05-24T12:19:31;102290.38;;;21.02;43.43
75359;BME280;64046;51.978;5.934;2023-05-24T12:22:03;102284.50;;;20.97;43.67
75359;BME280;64046;51.978;5.934;2023-05-24T12:24:54;102287.63;;;21.03;43.22
75359;BME280;64046;51.978;5.934;2023-05-24T12:27:26;102285.66;;;20.92;43.33
75359;BME280;64046;51.978;5.934;2023-05-24T12:30:05;102291.34;;;21.01;42.91
75359;BME280;64046;51.978;5.934;2023-05-24T12:32:37;102286.16;;;20.85;43.66
75359;BME280;64046;51.978;5.934;2023-05-24T12:35:10;102280.00;;;20.70;43.77
75359;BME280;64046;51.978;5.934;2023-05-24T12:37:40;102276.59;;;20.68;43.61
75359;BME280;64046;51.978;5.934;2023-05-24T12:40:15;102286.91;;;20.87;43.05
75359;BME280;64046;51.978;5.934;2023-05-24T12:42:51;102283.66;;;20.96;42.88
75359;BME280;64046;51.978;5.934;2023-05-24T12:45:25;102268.09;;;21.03;42.86
75359;BME280;64046;51.978;5.934;2023-05-24T12:47:58;102273.78;;;21.11;42.79
75359;BME280;64046;51.978;5.934;2023-05-24T12:50:30;102284.56;;;21.09;42.89
75359;BME280;64046;51.978;5.934;2023-05-24T12:53:02;102276.88;;;21.05;42.41
75359;BME280;64046;51.978;5.934;2023-05-24T12:55:38;102274.94;;;21.07;42.74
75359;BME280;64046;51.978;5.934;2023-05-24T12:58:15;102281.50;;;20.74;43.11
75359;BME280;64046;51.978;5.934;2023-05-24T13:00:48;102274.03;;;20.94;43.10
75359;BME280;64046;51.978;5.934;2023-05-24T13:03:34;102268.16;;;20.88;43.13
75359;BME280;64046;51.978;5.934;2023-05-24T13:06:07;102267.50;;;21.12;43.31
75359;BME280;64046;51.978;5.934;2023-05-24T13:08:37;102272.97;;;21.23;42.81
75359;BME280;64046;51.978;5.934;2023-05-24T13:11:07;102280.56;;;21.02;42.89
75359;BME280;64046;51.978;5.934;2023-05-24T13:13:39;102279.84;;;20.86;43.02
75359;BME280;64046;51.978;5.934;2023-05-24T13:16:13;102280.72;;;20.86;42.82
75359;BME280;64046;51.978;5.934;2023-05-24T13:18:45;102277.53;;;20.67;42.95
75359;BME280;64046;51.978;5.934;2023-05-24T13:21:14;102282.34;;;20.60;42.88
75359;BME280;64046;51.978;5.934;2023-05-24T13:23:45;102277.13;;;20.58;42.62
75359;BME280;64046;51.978;5.934;2023-05-24T13:26:20;102269.53;;;20.67;42.79
75359;BME280;64046;51.978;5.934;2023-05-24T13:28:51;102273.91;;;20.68;42.83
75359;BME280;64046;51.978;5.934;2023-05-24T13:31:26;102280.72;;;20.86;42.03